Hasabi II — ZCPG3 — position and weather

sailwx.info

Track history (hours):
 
Tides and Currents Weather Stations Pressure Air Temp Water Temp Dewpoint Dewpoint Depression Visibility Wind Speed Wind Dir Waves Ship Positions

Hasabi II

Last reported at 2016-Jul-24 16:25 UTC. Time now 2016-Jul-25 00:17 UTC.
Position N 37°17' E 023°06'.

Length 58 m; draft 3 m.

Type: Ship (hazmat cat C). MMSI: 319022000.

Date/timePositionNaut miles runAvg speedWind from/ knotsBaromVisibWave heightAir tempDewpointWater temp
2016-Jul-24 16:25N 37°17' E 023°06'0 0.0
2016-Jul-24 15:30N 37°17' E 023°06'0 0.0
2016-Jul-24 05:31N 37°17' E 023°06'0 0.0
2016-Jul-24 04:33N 37°17' E 023°06'0 0.3
2016-Jul-24 03:11N 37°17' E 023°07'6 8.4
2016-Jul-24 02:30N 37°15' E 023°14'19 9.6
2016-Jul-24 00:30N 37°07' E 023°36'80 1.9
2016-Jul-22 07:07N 36°59' E 025°15'9 5.9
2016-Jul-22 05:33N 37°08' E 025°14'0 0.0
2016-Jul-22 04:33N 37°08' E 025°14'0 0.0
2016-Jul-22 03:19N 37°08' E 025°14'0 0.0
2016-Jul-22 02:33N 37°08' E 025°14'0 0.0
2016-Jul-22 01:31N 37°08' E 025°14'0 0.0
2016-Jul-22 00:33N 37°08' E 025°14'0 0.0
2016-Jul-21 23:23N 37°08' E 025°14'0 0.0
2016-Jul-21 22:30N 37°08' E 025°14'0 0.0
2016-Jul-21 21:29N 37°08' E 025°14'0 0.0
2016-Jul-21 20:33N 37°08' E 025°14'0 0.0
2016-Jul-21 19:33N 37°08' E 025°14'0 0.0
2016-Jul-21 18:30N 37°08' E 025°14'0 0.0
2016-Jul-21 17:33N 37°08' E 025°14'0 0.0
2016-Jul-21 16:33N 37°08' E 025°14'3 3.0
2016-Jul-21 15:33N 37°11' E 025°15'1010.1
2016-Jul-21 14:33N 37°21' E 025°19'4 3.9
2016-Jul-21 13:33N 37°25' E 025°20'0 0.0
2016-Jul-21 12:33N 37°25' E 025°20'0 0.0
2016-Jul-21 11:33N 37°25' E 025°20'0 0.0
2016-Jul-21 10:33N 37°25' E 025°20'0 0.0
2016-Jul-21 09:33N 37°25' E 025°20'0 0.0
2016-Jul-21 08:28N 37°25' E 025°20'0 0.0
2016-Jul-21 07:32N 37°25' E 025°20'0 0.0
2016-Jul-21 06:32N 37°25' E 025°20'0 0.0
2016-Jul-21 05:32N 37°25' E 025°20'0 0.0
2016-Jul-21 04:33N 37°25' E 025°20'0 0.0
2016-Jul-21 03:32N 37°25' E 025°20'0 0.0
2016-Jul-21 02:25N 37°25' E 025°20'0 0.0
2016-Jul-21 01:30N 37°25' E 025°20'0 0.0
2016-Jul-21 00:33N 37°25' E 025°20'0 0.0
2016-Jul-20 23:32N 37°25' E 025°20'0 0.0
2016-Jul-20 22:32N 37°25' E 025°20'0 0.0
2016-Jul-20 21:33N 37°25' E 025°20'0 0.0
2016-Jul-20 20:22N 37°25' E 025°20'0 0.0
2016-Jul-20 19:33N 37°25' E 025°20'0 0.0
2016-Jul-20 18:29N 37°25' E 025°20'0 0.0
2016-Jul-20 17:33N 37°25' E 025°20'0 0.0
2016-Jul-20 16:31N 37°25' E 025°20'0 0.0
2016-Jul-20 15:29N 37°25' E 025°20'0 0.0
2016-Jul-20 14:31N 37°25' E 025°20'0 0.0
2016-Jul-20 13:33N 37°25' E 025°20'0 0.0
2016-Jul-20 12:33N 37°25' E 025°20'0 0.0
2016-Jul-20 11:31N 37°25' E 025°20'0 0.0
2016-Jul-20 10:33N 37°25' E 025°20'0 0.0
2016-Jul-20 09:21N 37°25' E 025°20'0 0.0
2016-Jul-20 08:30N 37°25' E 025°20'0 0.0
2016-Jul-20 07:33N 37°25' E 025°20'0 0.0
2016-Jul-20 06:32N 37°25' E 025°20'0 0.0
2016-Jul-20 05:33N 37°25' E 025°20'0 0.0
2016-Jul-20 04:33N 37°25' E 025°20'0 0.0
2016-Jul-20 03:33N 37°25' E 025°20'0 0.0
2016-Jul-20 02:33N 37°25' E 025°20'0 0.0
2016-Jul-20 01:31N 37°25' E 025°20'0 0.0
2016-Jul-20 00:33N 37°25' E 025°20'0 0.0
2016-Jul-19 23:33N 37°25' E 025°20'0 0.0
2016-Jul-19 22:33N 37°25' E 025°20'0 0.0
2016-Jul-19 21:33N 37°25' E 025°20'0 0.0
2016-Jul-19 18:10N 37°25' E 025°20'0 0.0
2016-Jul-19 17:14N 37°25' E 025°20'0 0.0
2016-Jul-19 16:28N 37°25' E 025°20'0 0.0
2016-Jul-19 15:32N 37°25' E 025°20'0 0.0
2016-Jul-19 14:33N 37°25' E 025°20'0 0.0
2016-Jul-19 13:33N 37°25' E 025°20'0 0.0
2016-Jul-19 12:26N 37°25' E 025°20'0 0.0
2016-Jul-19 11:28N 37°25' E 025°20'0 0.0
2016-Jul-19 10:31N 37°25' E 025°20'0 0.0
2016-Jul-19 09:30N 37°25' E 025°20'0 0.0
2016-Jul-19 08:33N 37°25' E 025°20'0 0.0
2016-Jul-19 07:33N 37°25' E 025°20'0 0.0
2016-Jul-19 04:33N 37°25' E 025°20'0 0.0
2016-Jul-19 03:33N 37°25' E 025°20'0 0.0
2016-Jul-19 02:33N 37°25' E 025°20'0 0.0
2016-Jul-19 01:33N 37°25' E 025°20'0 0.0
2016-Jul-19 00:33N 37°25' E 025°20'0 0.0
2016-Jul-18 23:33N 37°25' E 025°20'0 0.0
2016-Jul-18 22:33N 37°25' E 025°20'0 0.0
2016-Jul-18 21:33N 37°25' E 025°20'0 0.0
2016-Jul-18 20:33N 37°25' E 025°20'0 0.0
2016-Jul-18 19:33N 37°25' E 025°20'0 0.0
2016-Jul-18 18:33N 37°25' E 025°20'0 0.0
2016-Jul-18 17:32N 37°25' E 025°20'0 0.0
2016-Jul-18 16:33N 37°25' E 025°20'0 0.0
2016-Jul-18 15:33N 37°25' E 025°20'0 0.0
2016-Jul-18 14:33N 37°25' E 025°20'0 0.0
2016-Jul-18 13:33N 37°25' E 025°20'0 0.0
2016-Jul-18 12:33N 37°25' E 025°20'0 0.0
2016-Jul-18 11:33N 37°25' E 025°20'0 0.0
2016-Jul-18 10:33N 37°25' E 025°20'0 0.0
2016-Jul-18 09:33N 37°25' E 025°20'0 0.0
2016-Jul-18 08:33N 37°25' E 025°20'0 0.0
2016-Jul-18 07:33N 37°25' E 025°20'0 0.0
2016-Jul-18 06:33N 37°25' E 025°20'0 0.0
2016-Jul-18 05:33N 37°25' E 025°20'0 0.0
2016-Jul-18 04:33N 37°25' E 025°20'0 0.0
2016-Jul-18 03:33N 37°25' E 025°20'0 0.0
2016-Jul-18 02:33N 37°25' E 025°20'0 0.0
2016-Jul-18 01:29N 37°25' E 025°20'0 0.0
2016-Jul-18 00:33N 37°25' E 025°20'0 0.0
2016-Jul-17 23:26N 37°25' E 025°20'0 0.0
2016-Jul-17 22:33N 37°25' E 025°20'0 0.0
2016-Jul-17 21:28N 37°25' E 025°20'0 0.0
2016-Jul-17 18:14N 37°25' E 025°20'0 0.0
2016-Jul-17 12:13N 37°24' E 025°20'1 1.0
2016-Jul-17 11:33N 37°25' E 025°19'0 0.0
2016-Jul-17 10:27N 37°25' E 025°19'0 0.0
2016-Jul-17 09:33N 37°25' E 025°19'0 0.0
2016-Jul-17 08:28N 37°25' E 025°19'0 0.0
2016-Jul-17 07:33N 37°25' E 025°19'0 0.0
2016-Jul-17 06:32N 37°25' E 025°19'0 0.0
2016-Jul-17 04:33N 37°25' E 025°19'0 0.0
2016-Jul-17 03:33N 37°25' E 025°19'0 0.0
2016-Jul-17 02:33N 37°25' E 025°19'0 0.0
2016-Jul-17 01:33N 37°25' E 025°19'0 0.0
2016-Jul-17 00:33N 37°25' E 025°19'0 0.0
2016-Jul-16 23:21N 37°25' E 025°19'0 0.0
2016-Jul-16 21:16N 37°25' E 025°19'0 0.0
2016-Jul-16 20:23N 37°25' E 025°19'0 0.0
2016-Jul-16 19:33N 37°25' E 025°19'0 0.0
2016-Jul-16 18:33N 37°25' E 025°19'0 0.0
2016-Jul-16 17:33N 37°25' E 025°19'0 0.0
2016-Jul-16 16:33N 37°25' E 025°19'0 0.0
2016-Jul-16 15:33N 37°25' E 025°19'0 0.0
2016-Jul-16 14:33N 37°25' E 025°20'0 0.0
2016-Jul-16 13:33N 37°25' E 025°19'0 0.0
2016-Jul-16 12:33N 37°25' E 025°19'0 0.0
2016-Jul-16 11:33N 37°25' E 025°19'0 0.0
2016-Jul-16 10:33N 37°25' E 025°20'0 0.0
2016-Jul-16 09:33N 37°25' E 025°19'0 0.0
2016-Jul-16 08:22N 37°25' E 025°19'0 0.0
2016-Jul-16 07:33N 37°25' E 025°19'0 0.0
2016-Jul-16 06:33N 37°25' E 025°19'0 0.0
2016-Jul-16 04:22N 37°25' E 025°19'0 0.0
2016-Jul-16 03:33N 37°25' E 025°19'0 0.0
2016-Jul-16 02:30N 37°25' E 025°19'0 0.0
2016-Jul-16 01:33N 37°25' E 025°19'0 0.0
2016-Jul-15 23:31N 37°25' E 025°19'0 0.0
2016-Jul-15 22:27N 37°25' E 025°19'0 0.0
2016-Jul-15 21:33N 37°25' E 025°19'0 0.0
2016-Jul-15 20:31N 37°25' E 025°19'0 0.0
2016-Jul-15 17:25N 37°25' E 025°19'0 0.0
2016-Jul-15 16:33N 37°25' E 025°19'0 0.0
2016-Jul-15 15:33N 37°25' E 025°19'0 0.0
2016-Jul-15 14:33N 37°25' E 025°19'0 0.0
2016-Jul-15 13:21N 37°25' E 025°19'0 0.0
2016-Jul-15 12:33N 37°25' E 025°19'0 0.0
2016-Jul-15 11:17N 37°25' E 025°19'0 0.0
2016-Jul-15 10:33N 37°25' E 025°19'0 0.0
2016-Jul-15 09:33N 37°25' E 025°19'0 0.0
2016-Jul-15 08:33N 37°25' E 025°19'0 0.0
2016-Jul-15 07:33N 37°25' E 025°19'0 0.0
2016-Jul-15 06:33N 37°25' E 025°19'0 0.0
2016-Jul-15 05:28N 37°25' E 025°19'0 0.0
2016-Jul-15 04:33N 37°25' E 025°19'0 0.0
2016-Jul-15 03:33N 37°25' E 025°19'0 0.0
2016-Jul-15 02:33N 37°25' E 025°19'0 0.0
2016-Jul-15 01:33N 37°25' E 025°19'0 0.0
2016-Jul-15 00:33N 37°25' E 025°19'0 0.0
2016-Jul-14 23:33N 37°25' E 025°19'0 0.0
2016-Jul-14 22:33N 37°25' E 025°19'0 0.0
2016-Jul-14 21:32N 37°25' E 025°19'0 0.0
2016-Jul-14 20:33N 37°25' E 025°19'0 0.0
2016-Jul-14 19:31N 37°25' E 025°19'0 0.0
2016-Jul-14 18:33N 37°25' E 025°19'0 0.0
2016-Jul-14 17:32N 37°25' E 025°19'0 0.0
2016-Jul-14 16:33N 37°25' E 025°19'  
Track history (hours):
 
Tides and Currents Weather Stations Pressure Air Temp Water Temp Dewpoint Dewpoint Depression Visibility Wind Speed Wind Dir Waves Ship Positions

Hasabi II

Last reported at 2016-Jul-24 16:25 UTC. Time now 2016-Jul-25 00:17 UTC.
Position N 37°17' E 023°06'.

Length 58 m; draft 3 m.

Type: Ship (hazmat cat C). MMSI: 319022000.

Date/timePositionNaut miles runAvg speedWind from/ knotsBaromVisibWave heightAir tempDewpointWater temp
2016-Jul-24 16:25N 37°17' E 023°06'0 0.0
2016-Jul-24 15:30N 37°17' E 023°06'0 0.0
2016-Jul-24 05:31N 37°17' E 023°06'0 0.0
2016-Jul-24 04:33N 37°17' E 023°06'0 0.3
2016-Jul-24 03:11N 37°17' E 023°07'6 8.4
2016-Jul-24 02:30N 37°15' E 023°14'19 9.6
2016-Jul-24 00:30N 37°07' E 023°36'80 1.9
2016-Jul-22 07:07N 36°59' E 025°15'9 5.9
2016-Jul-22 05:33N 37°08' E 025°14'0 0.0
2016-Jul-22 04:33N 37°08' E 025°14'0 0.0
2016-Jul-22 03:19N 37°08' E 025°14'0 0.0
2016-Jul-22 02:33N 37°08' E 025°14'0 0.0
2016-Jul-22 01:31N 37°08' E 025°14'0 0.0
2016-Jul-22 00:33N 37°08' E 025°14'0 0.0
2016-Jul-21 23:23N 37°08' E 025°14'0 0.0
2016-Jul-21 22:30N 37°08' E 025°14'0 0.0
2016-Jul-21 21:29N 37°08' E 025°14'0 0.0
2016-Jul-21 20:33N 37°08' E 025°14'0 0.0
2016-Jul-21 19:33N 37°08' E 025°14'0 0.0
2016-Jul-21 18:30N 37°08' E 025°14'0 0.0
2016-Jul-21 17:33N 37°08' E 025°14'0 0.0
2016-Jul-21 16:33N 37°08' E 025°14'3 3.0
2016-Jul-21 15:33N 37°11' E 025°15'1010.1
2016-Jul-21 14:33N 37°21' E 025°19'4 3.9
2016-Jul-21 13:33N 37°25' E 025°20'0 0.0
2016-Jul-21 12:33N 37°25' E 025°20'0 0.0
2016-Jul-21 11:33N 37°25' E 025°20'0 0.0
2016-Jul-21 10:33N 37°25' E 025°20'0 0.0
2016-Jul-21 09:33N 37°25' E 025°20'0 0.0
2016-Jul-21 08:28N 37°25' E 025°20'0 0.0
2016-Jul-21 07:32N 37°25' E 025°20'0 0.0
2016-Jul-21 06:32N 37°25' E 025°20'0 0.0
2016-Jul-21 05:32N 37°25' E 025°20'0 0.0
2016-Jul-21 04:33N 37°25' E 025°20'0 0.0
2016-Jul-21 03:32N 37°25' E 025°20'0 0.0
2016-Jul-21 02:25N 37°25' E 025°20'0 0.0
2016-Jul-21 01:30N 37°25' E 025°20'0 0.0
2016-Jul-21 00:33N 37°25' E 025°20'0 0.0
2016-Jul-20 23:32N 37°25' E 025°20'0 0.0
2016-Jul-20 22:32N 37°25' E 025°20'0 0.0
2016-Jul-20 21:33N 37°25' E 025°20'0 0.0
2016-Jul-20 20:22N 37°25' E 025°20'0 0.0
2016-Jul-20 19:33N 37°25' E 025°20'0 0.0
2016-Jul-20 18:29N 37°25' E 025°20'0 0.0
2016-Jul-20 17:33N 37°25' E 025°20'0 0.0
2016-Jul-20 16:31N 37°25' E 025°20'0 0.0
2016-Jul-20 15:29N 37°25' E 025°20'0 0.0
2016-Jul-20 14:31N 37°25' E 025°20'0 0.0
2016-Jul-20 13:33N 37°25' E 025°20'0 0.0
2016-Jul-20 12:33N 37°25' E 025°20'0 0.0
2016-Jul-20 11:31N 37°25' E 025°20'0 0.0
2016-Jul-20 10:33N 37°25' E 025°20'0 0.0
2016-Jul-20 09:21N 37°25' E 025°20'0 0.0
2016-Jul-20 08:30N 37°25' E 025°20'0 0.0
2016-Jul-20 07:33N 37°25' E 025°20'0 0.0
2016-Jul-20 06:32N 37°25' E 025°20'0 0.0
2016-Jul-20 05:33N 37°25' E 025°20'0 0.0
2016-Jul-20 04:33N 37°25' E 025°20'0 0.0
2016-Jul-20 03:33N 37°25' E 025°20'0 0.0
2016-Jul-20 02:33N 37°25' E 025°20'0 0.0
2016-Jul-20 01:31N 37°25' E 025°20'0 0.0
2016-Jul-20 00:33N 37°25' E 025°20'0 0.0
2016-Jul-19 23:33N 37°25' E 025°20'0 0.0
2016-Jul-19 22:33N 37°25' E 025°20'0 0.0
2016-Jul-19 21:33N 37°25' E 025°20'0 0.0
2016-Jul-19 18:10N 37°25' E 025°20'0 0.0
2016-Jul-19 17:14N 37°25' E 025°20'0 0.0
2016-Jul-19 16:28N 37°25' E 025°20'0 0.0
2016-Jul-19 15:32N 37°25' E 025°20'0 0.0
2016-Jul-19 14:33N 37°25' E 025°20'0 0.0
2016-Jul-19 13:33N 37°25' E 025°20'0 0.0
2016-Jul-19 12:26N 37°25' E 025°20'0 0.0
2016-Jul-19 11:28N 37°25' E 025°20'0 0.0
2016-Jul-19 10:31N 37°25' E 025°20'0 0.0
2016-Jul-19 09:30N 37°25' E 025°20'0 0.0
2016-Jul-19 08:33N 37°25' E 025°20'0 0.0
2016-Jul-19 07:33N 37°25' E 025°20'0 0.0
2016-Jul-19 04:33N 37°25' E 025°20'0 0.0
2016-Jul-19 03:33N 37°25' E 025°20'0 0.0
2016-Jul-19 02:33N 37°25' E 025°20'0 0.0
2016-Jul-19 01:33N 37°25' E 025°20'0 0.0
2016-Jul-19 00:33N 37°25' E 025°20'0 0.0
2016-Jul-18 23:33N 37°25' E 025°20'0 0.0
2016-Jul-18 22:33N 37°25' E 025°20'0 0.0
2016-Jul-18 21:33N 37°25' E 025°20'0 0.0
2016-Jul-18 20:33N 37°25' E 025°20'0 0.0
2016-Jul-18 19:33N 37°25' E 025°20'0 0.0
2016-Jul-18 18:33N 37°25' E 025°20'0 0.0
2016-Jul-18 17:32N 37°25' E 025°20'0 0.0
2016-Jul-18 16:33N 37°25' E 025°20'0 0.0
2016-Jul-18 15:33N 37°25' E 025°20'0 0.0
2016-Jul-18 14:33N 37°25' E 025°20'0 0.0
2016-Jul-18 13:33N 37°25' E 025°20'0 0.0
2016-Jul-18 12:33N 37°25' E 025°20'0 0.0
2016-Jul-18 11:33N 37°25' E 025°20'0 0.0
2016-Jul-18 10:33N 37°25' E 025°20'0 0.0
2016-Jul-18 09:33N 37°25' E 025°20'0 0.0
2016-Jul-18 08:33N 37°25' E 025°20'0 0.0
2016-Jul-18 07:33N 37°25' E 025°20'0 0.0
2016-Jul-18 06:33N 37°25' E 025°20'0 0.0
2016-Jul-18 05:33N 37°25' E 025°20'0 0.0
2016-Jul-18 04:33N 37°25' E 025°20'0 0.0
2016-Jul-18 03:33N 37°25' E 025°20'0 0.0
2016-Jul-18 02:33N 37°25' E 025°20'0 0.0
2016-Jul-18 01:29N 37°25' E 025°20'0 0.0
2016-Jul-18 00:33N 37°25' E 025°20'0 0.0
2016-Jul-17 23:26N 37°25' E 025°20'0 0.0
2016-Jul-17 22:33N 37°25' E 025°20'0 0.0
2016-Jul-17 21:28N 37°25' E 025°20'0 0.0
2016-Jul-17 18:14N 37°25' E 025°20'0 0.0
2016-Jul-17 12:13N 37°24' E 025°20'1 1.0
2016-Jul-17 11:33N 37°25' E 025°19'0 0.0
2016-Jul-17 10:27N 37°25' E 025°19'0 0.0
2016-Jul-17 09:33N 37°25' E 025°19'0 0.0
2016-Jul-17 08:28N 37°25' E 025°19'0 0.0
2016-Jul-17 07:33N 37°25' E 025°19'0 0.0
2016-Jul-17 06:32N 37°25' E 025°19'0 0.0
2016-Jul-17 04:33N 37°25' E 025°19'0 0.0
2016-Jul-17 03:33N 37°25' E 025°19'0 0.0
2016-Jul-17 02:33N 37°25' E 025°19'0 0.0
2016-Jul-17 01:33N 37°25' E 025°19'0 0.0
2016-Jul-17 00:33N 37°25' E 025°19'0 0.0
2016-Jul-16 23:21N 37°25' E 025°19'0 0.0
2016-Jul-16 21:16N 37°25' E 025°19'0 0.0
2016-Jul-16 20:23N 37°25' E 025°19'0 0.0
2016-Jul-16 19:33N 37°25' E 025°19'0 0.0
2016-Jul-16 18:33N 37°25' E 025°19'0 0.0
2016-Jul-16 17:33N 37°25' E 025°19'0 0.0
2016-Jul-16 16:33N 37°25' E 025°19'0 0.0
2016-Jul-16 15:33N 37°25' E 025°19'0 0.0
2016-Jul-16 14:33N 37°25' E 025°20'0 0.0
2016-Jul-16 13:33N 37°25' E 025°19'0 0.0
2016-Jul-16 12:33N 37°25' E 025°19'0 0.0
2016-Jul-16 11:33N 37°25' E 025°19'0 0.0
2016-Jul-16 10:33N 37°25' E 025°20'0 0.0
2016-Jul-16 09:33N 37°25' E 025°19'0 0.0
2016-Jul-16 08:22N 37°25' E 025°19'0 0.0
2016-Jul-16 07:33N 37°25' E 025°19'0 0.0
2016-Jul-16 06:33N 37°25' E 025°19'0 0.0
2016-Jul-16 04:22N 37°25' E 025°19'0 0.0
2016-Jul-16 03:33N 37°25' E 025°19'0 0.0
2016-Jul-16 02:30N 37°25' E 025°19'0 0.0
2016-Jul-16 01:33N 37°25' E 025°19'0 0.0
2016-Jul-15 23:31N 37°25' E 025°19'0 0.0
2016-Jul-15 22:27N 37°25' E 025°19'0 0.0
2016-Jul-15 21:33N 37°25' E 025°19'0 0.0
2016-Jul-15 20:31N 37°25' E 025°19'0 0.0
2016-Jul-15 17:25N 37°25' E 025°19'0 0.0
2016-Jul-15 16:33N 37°25' E 025°19'0 0.0
2016-Jul-15 15:33N 37°25' E 025°19'0 0.0
2016-Jul-15 14:33N 37°25' E 025°19'0 0.0
2016-Jul-15 13:21N 37°25' E 025°19'0 0.0
2016-Jul-15 12:33N 37°25' E 025°19'0 0.0
2016-Jul-15 11:17N 37°25' E 025°19'0 0.0
2016-Jul-15 10:33N 37°25' E 025°19'0 0.0
2016-Jul-15 09:33N 37°25' E 025°19'0 0.0
2016-Jul-15 08:33N 37°25' E 025°19'0 0.0
2016-Jul-15 07:33N 37°25' E 025°19'0 0.0
2016-Jul-15 06:33N 37°25' E 025°19'0 0.0
2016-Jul-15 05:28N 37°25' E 025°19'0 0.0
2016-Jul-15 04:33N 37°25' E 025°19'0 0.0
2016-Jul-15 03:33N 37°25' E 025°19'0 0.0
2016-Jul-15 02:33N 37°25' E 025°19'0 0.0
2016-Jul-15 01:33N 37°25' E 025°19'0 0.0
2016-Jul-15 00:33N 37°25' E 025°19'0 0.0
2016-Jul-14 23:33N 37°25' E 025°19'0 0.0
2016-Jul-14 22:33N 37°25' E 025°19'0 0.0
2016-Jul-14 21:32N 37°25' E 025°19'0 0.0
2016-Jul-14 20:33N 37°25' E 025°19'0 0.0
2016-Jul-14 19:31N 37°25' E 025°19'0 0.0
2016-Jul-14 18:33N 37°25' E 025°19'0 0.0
2016-Jul-14 17:32N 37°25' E 025°19'0 0.0
2016-Jul-14 16:33N 37°25' E 025°19'  

Dump ship's entire track history